Time;durP1;ratioP1;P1;durP2;ratioP2;P2;SDS_P1;SDS_P2;PMS_P1;PMS_P2;Temp;Humidity;BMP_temperature;BMP_pressure;BME280_temperature;BME280_humidity;BME280_pressure;Samples;Min_cycle;Max_cycle;Signal;HPM_P1;HPM_P2
2022/11/30 00:01:12;;;;;;;6.35;4.50;;;;;;;16.74;37.40;102545.72;4989364;28;20098;-94
2022/11/30 00:03:38;;;;;;;6.53;4.70;;;;;;;16.70;37.47;102539.81;5002107;28;20080;-95
2022/11/30 00:06:05;;;;;;;5.60;4.32;;;;;;;16.73;37.36;102537.78;4970350;28;20468;-94
2022/11/30 00:08:31;;;;;;;5.70;4.63;;;;;;;16.70;37.47;102541.69;4984292;28;20030;-96
2022/11/30 00:10:56;;;;;;;6.65;4.72;;;;;;;16.73;37.50;102537.78;4986933;28;20339;-94
2022/11/30 00:13:22;;;;;;;6.05;4.35;;;;;;;16.69;37.23;102540.84;5018287;28;20497;-94
2022/11/30 00:15:48;;;;;;;5.57;4.35;;;;;;;16.73;37.48;102538.66;5003664;28;20464;-95
2022/11/30 00:18:23;;;;;;;6.90;4.75;;;;;;;16.70;37.57;102529.03;4999808;28;20033;-94
2022/11/30 00:20:49;;;;;;;6.20;4.32;;;;;;;16.70;37.64;102523.63;4998889;28;20030;-94
2022/11/30 00:23:15;;;;;;;7.15;5.15;;;;;;;16.74;37.56;102539.47;4995456;28;20032;-95
2022/11/30 00:25:40;;;;;;;6.03;4.57;;;;;;;16.72;37.31;102536.94;4986858;28;20109;-95
2022/11/30 00:28:06;;;;;;;5.40;4.30;;;;;;;16.67;37.57;102520.44;4994170;28;20391;-95
2022/11/30 00:30:32;;;;;;;6.28;4.38;;;;;;;16.69;37.50;102527.34;4998965;28;20362;-95
2022/11/30 00:32:57;;;;;;;5.90;4.05;;;;;;;16.68;37.46;102527.53;5020345;28;20033;-95
2022/11/30 00:35:23;;;;;;;6.32;4.57;;;;;;;16.66;37.49;102525.00;4977906;28;20224;-95
2022/11/30 00:37:49;;;;;;;6.07;4.47;;;;;;;16.69;37.52;102530.06;5005879;28;20025;-95
2022/11/30 00:40:14;;;;;;;5.82;4.20;;;;;;;16.71;37.41;102529.84;5008314;28;20032;-94
2022/11/30 00:42:41;;;;;;;7.25;4.85;;;;;;;16.69;37.53;102537.28;5036243;28;20041;-94
2022/11/30 00:45:18;;;;;;;6.43;4.53;;;;;;;16.72;37.45;102531.53;5006182;28;20055;-95
2022/11/30 00:47:47;;;;;;;6.43;4.28;;;;;;;16.71;37.47;102527.16;5019149;28;20033;-95
2022/11/30 00:50:13;;;;;;;6.07;4.50;;;;;;;16.69;37.50;102529.19;5018715;28;20089;-94
2022/11/30 00:52:39;;;;;;;6.78;4.53;;;;;;;16.74;37.38;102531.38;5037206;28;20380;-95
2022/11/30 00:55:05;;;;;;;6.20;4.40;;;;;;;16.69;37.41;102527.34;5021315;28;20025;-95
2022/11/30 00:57:31;;;;;;;5.80;4.53;;;;;;;16.71;37.37;102530.72;5007718;28;20455;-94
2022/11/30 00:59:57;;;;;;;5.70;4.43;;;;;;;16.67;37.43;102521.25;5035153;28;20021;-94
2022/11/30 01:02:22;;;;;;;6.75;4.80;;;;;;;16.71;37.44;102529.84;5037478;28;20029;-95
2022/11/30 01:04:48;;;;;;;6.53;4.35;;;;;;;16.66;37.37;102522.31;5034879;28;20025;-95
2022/11/30 01:07:14;;;;;;;6.00;4.40;;;;;;;16.66;37.50;102522.31;5012873;28;20033;-95
2022/11/30 01:09:46;;;;;;;5.97;4.63;;;;;;;16.68;37.59;102520.25;5035402;28;20441;-94
2022/11/30 01:12:11;;;;;;;6.28;4.68;;;;;;;16.68;37.50;102525.66;5007738;28;20028;-95
2022/11/30 01:14:37;;;;;;;6.18;4.72;;;;;;;16.67;37.33;102512.34;5006552;28;20030;-95
2022/11/30 01:17:03;;;;;;;5.85;4.30;;;;;;;16.70;37.43;102526.31;5030207;28;22374;-94
2022/11/30 01:19:28;;;;;;;5.20;4.10;;;;;;;16.73;37.33;102527.84;5017529;28;20312;-95
2022/11/30 01:21:54;;;;;;;6.30;4.07;;;;;;;16.72;37.40;102528.84;5008007;28;20116;-95
2022/11/30 01:24:20;;;;;;;6.22;4.70;;;;;;;16.69;37.43;102521.97;5005168;28;20108;-94
2022/11/30 01:26:45;;;;;;;5.63;3.97;;;;;;;16.67;37.49;102517.72;5022163;28;20480;-95
2022/11/30 01:29:11;;;;;;;6.05;4.30;;;;;;;16.67;37.51;102518.56;5021702;28;20029;-94
2022/11/30 01:31:37;;;;;;;5.60;4.20;;;;;;;16.68;37.51;102522.13;5039293;28;20023;-94
2022/11/30 01:34:02;;;;;;;5.30;4.18;;;;;;;16.69;37.23;102518.41;5036959;28;20102;-94
2022/11/30 01:36:28;;;;;;;5.68;4.25;;;;;;;16.66;37.42;102510.63;5007125;28;20046;-94
2022/11/30 01:38:55;;;;;;;4.57;3.85;;;;;;;16.68;37.35;102517.56;5035174;28;20391;-95
2022/11/30 01:41:30;;;;;;;5.70;4.22;;;;;;;16.66;37.48;102511.50;5020806;28;20381;-94
2022/11/30 01:44:05;;;;;;;5.90;4.30;;;;;;;16.69;37.49;102516.56;5018686;28;20024;-94
2022/11/30 01:46:45;;;;;;;6.05;4.50;;;;;;;16.67;37.42;102512.34;5038090;28;20029;-94
2022/11/30 01:49:10;;;;;;;5.25;4.20;;;;;;;16.70;37.55;102510.13;5036283;28;20025;-95
2022/11/30 01:51:50;;;;;;;5.47;4.30;;;;;;;16.67;37.26;102499.66;5038605;28;20499;-95
2022/11/30 01:54:18;;;;;;;7.18;4.28;;;;;;;16.68;37.27;102500.53;5030114;28;20407;-95
2022/11/30 01:56:47;;;;;;;5.88;4.65;;;;;;;16.66;37.42;102508.81;5036062;28;20768;-94
2022/11/30 01:59:13;;;;;;;6.72;4.47;;;;;;;16.67;37.43;102513.16;5020886;28;20029;-96
2022/11/30 02:01:38;;;;;;;6.82;4.55;;;;;;;16.66;37.43;102502.53;5026171;28;20037;-95
2022/11/30 02:04:11;;;;;;;6.13;4.40;;;;;;;16.64;37.30;102491.94;5028980;28;20032;-94
2022/11/30 02:06:36;;;;;;;5.15;4.05;;;;;;;16.65;37.37;102498.19;5040709;28;20028;-95
2022/11/30 02:09:02;;;;;;;4.70;3.85;;;;;;;16.69;37.54;102504.88;5026509;28;20565;-94
2022/11/30 02:11:28;;;;;;;5.55;4.15;;;;;;;16.67;37.59;102507.75;5038325;28;20581;-94
2022/11/30 02:14:18;;;;;;;5.78;4.50;;;;;;;16.70;37.45;102502.03;5038326;28;20395;-95
2022/11/30 02:17:16;;;;;;;5.28;3.90;;;;;;;16.68;37.49;102498.66;5031349;28;20088;-95
2022/11/30 02:19:57;;;;;;;5.45;4.13;;;;;;;16.66;37.58;102495.31;5032023;28;20037;-94
2022/11/30 02:22:34;;;;;;;5.85;4.43;;;;;;;16.68;37.55;102492.44;5039430;28;20036;-95
2022/11/30 02:25:23;;;;;;;5.43;4.20;;;;;;;16.66;37.47;102484.50;5034918;28;20036;-95
2022/11/30 02:28:26;;;;;;;6.35;4.53;;;;;;;16.70;37.40;102491.22;5022413;28;20624;-96
2022/11/30 02:30:52;;;;;;;5.75;4.30;;;;;;;16.65;37.50;102501.72;5042321;28;20100;-94
2022/11/30 02:33:19;;;;;;;5.63;4.07;;;;;;;16.67;37.40;102496.13;5025329;28;20374;-95
2022/11/30 02:35:46;;;;;;;5.38;4.18;;;;;;;16.68;37.42;102492.44;5016879;28;20086;-94
2022/11/30 02:38:12;;;;;;;5.25;4.18;;;;;;;16.67;37.38;102488.88;5001175;28;20068;-94
2022/11/30 02:40:38;;;;;;;4.82;3.95;;;;;;;16.63;37.33;102484.84;5008759;28;20028;-94
2022/11/30 02:43:04;;;;;;;5.05;4.05;;;;;;;16.67;37.36;102488.88;5007687;28;20168;-94
2022/11/30 02:45:33;;;;;;;5.03;4.30;;;;;;;16.66;37.32;102480.94;5010233;28;20079;-94
2022/11/30 02:48:09;;;;;;;5.60;4.10;;;;;;;16.65;37.49;102482.81;5019694;28;20029;-94
2022/11/30 02:50:52;;;;;;;5.32;3.95;;;;;;;16.69;37.39;102494.97;5009153;28;20507;-93
2022/11/30 02:53:18;;;;;;;5.90;4.03;;;;;;;16.67;37.33;102491.56;5011196;28;20565;-94
2022/11/30 02:55:43;;;;;;;5.85;4.25;;;;;;;16.69;37.27;102494.97;5008756;28;20026;-94
2022/11/30 02:58:10;;;;;;;5.53;3.95;;;;;;;16.64;37.27;102491.94;5022874;28;20083;-95
2022/11/30 03:00:35;;;;;;;5.05;4.25;;;;;;;16.68;37.61;102493.25;5027271;28;20539;-94
2022/11/30 03:03:01;;;;;;;4.30;3.75;;;;;;;16.68;37.40;102484.34;5018120;28;20064;-94
2022/11/30 03:05:26;;;;;;;5.30;4.15;;;;;;;16.64;37.44;102478.44;5018137;28;20133;-95
2022/11/30 03:07:52;;;;;;;5.47;4.30;;;;;;;16.64;37.30;102481.16;5037583;28;20551;-96
2022/11/30 03:10:17;;;;;;;4.90;3.97;;;;;;;16.68;37.32;102490.56;5008182;28;20040;-94
2022/11/30 03:12:43;;;;;;;4.40;3.75;;;;;;;16.67;37.41;102475.38;5020446;28;20035;-94
2022/11/30 03:15:09;;;;;;;5.18;4.05;;;;;;;16.65;37.28;102481.97;5006710;28;20049;-95
2022/11/30 03:17:35;;;;;;;5.38;4.18;;;;;;;16.68;37.41;102482.47;5041562;28;20037;-94
2022/11/30 03:20:01;;;;;;;4.55;3.97;;;;;;;16.63;37.37;102479.44;5015757;28;20078;-94
2022/11/30 03:22:26;;;;;;;5.63;4.10;;;;;;;16.67;37.56;102482.63;5007542;28;20030;-95
2022/11/30 03:24:52;;;;;;;5.70;3.95;;;;;;;16.65;37.44;102480.09;5027104;28;20075;-95
2022/11/30 03:27:17;;;;;;;6.70;4.18;;;;;;;16.65;37.45;102482.81;5020651;28;20041;-95
2022/11/30 03:29:43;;;;;;;5.20;4.20;;;;;;;16.65;37.37;102476.56;5007146;28;20106;-94
2022/11/30 03:32:09;;;;;;;4.38;3.80;;;;;;;16.64;37.37;102481.16;5040218;28;20021;-94
2022/11/30 03:34:34;;;;;;;5.05;3.75;;;;;;;16.66;37.47;102475.53;5000486;28;20529;-94
2022/11/30 03:37:00;;;;;;;5.72;4.00;;;;;;;16.63;37.31;102476.75;4980588;28;20551;-95
2022/11/30 03:39:26;;;;;;;5.63;3.72;;;;;;;16.63;37.27;102474.06;4973030;28;20030;-96
2022/11/30 03:41:51;;;;;;;5.93;4.28;;;;;;;16.64;37.39;102482.97;4970720;28;20025;-94
2022/11/30 03:44:17;;;;;;;5.68;4.18;;;;;;;16.60;37.39;102471.69;4974671;28;20385;-95
2022/11/30 03:46:43;;;;;;;5.30;3.88;;;;;;;16.66;37.30;102481.81;4995638;28;20021;-95
2022/11/30 03:49:09;;;;;;;4.32;3.78;;;;;;;16.65;37.46;102476.56;4987532;28;20528;-95
2022/11/30 03:51:34;;;;;;;5.35;4.20;;;;;;;16.66;37.25;102479.09;4980812;28;20052;-95
2022/11/30 03:54:00;;;;;;;4.13;3.70;;;;;;;16.65;37.33;102474.72;4995438;28;20026;-95
2022/11/30 03:56:26;;;;;;;5.00;3.80;;;;;;;16.66;37.39;102484.50;4988076;28;20476;-94
2022/11/30 03:58:51;;;;;;;4.82;3.80;;;;;;;16.66;37.43;102484.50;4981874;28;20509;-96
2022/11/30 04:01:22;;;;;;;4.63;3.67;;;;;;;16.61;37.40;102478.78;5003154;28;20150;-95
2022/11/30 04:03:51;;;;;;;5.53;3.95;;;;;;;16.65;37.15;102484.69;4985941;28;20036;-94
2022/11/30 04:06:17;;;;;;;4.63;3.88;;;;;;;16.60;37.45;102482.50;5000965;28;20327;-94
2022/11/30 04:08:43;;;;;;;5.22;3.80;;;;;;;16.64;37.41;102500.03;4980169;28;20406;-94
2022/11/30 04:11:08;;;;;;;5.43;4.25;;;;;;;16.62;37.37;102488.56;4998905;28;20441;-94
2022/11/30 04:13:35;;;;;;;5.13;3.78;;;;;;;16.63;37.33;102490.25;4969771;28;20029;-95
2022/11/30 04:16:01;;;;;;;4.45;3.80;;;;;;;16.62;37.41;102488.56;4977801;28;20034;-95
2022/11/30 04:18:27;;;;;;;4.78;3.70;;;;;;;16.66;37.39;102487.22;4983587;28;20052;-94
2022/11/30 04:20:54;;;;;;;4.70;3.90;;;;;;;16.61;37.45;102483.34;4994462;28;20036;-94
2022/11/30 04:23:20;;;;;;;4.93;3.85;;;;;;;16.60;37.47;102478.97;4987136;28;20095;-94
2022/11/30 04:25:49;;;;;;;5.05;3.88;;;;;;;16.61;37.36;102480.63;4995799;28;20570;-94
2022/11/30 04:28:15;;;;;;;4.75;4.00;;;;;;;16.56;37.49;102483.88;4983965;28;20026;-95
2022/11/30 04:30:41;;;;;;;4.22;3.45;;;;;;;16.64;37.48;102486.53;4988450;28;20021;-94
2022/11/30 04:33:10;;;;;;;5.88;4.38;;;;;;;16.63;37.47;102501.06;4970559;28;20026;-94
2022/11/30 04:35:47;;;;;;;4.88;3.90;;;;;;;16.62;37.28;102488.56;4986407;28;20042;-95
2022/11/30 04:38:12;;;;;;;5.03;4.03;;;;;;;16.63;37.28;102490.25;5007865;28;20103;-94
2022/11/30 04:40:39;;;;;;;4.85;4.05;;;;;;;16.60;37.59;102487.91;5017782;28;20024;-94
2022/11/30 04:43:07;;;;;;;4.47;3.40;;;;;;;16.62;37.37;102493.94;5025534;28;20032;-95
2022/11/30 04:45:32;;;;;;;4.45;3.45;;;;;;;16.62;37.31;102488.56;5013841;28;20130;-95
2022/11/30 04:47:58;;;;;;;5.13;3.88;;;;;;;16.62;37.45;102485.03;5040872;28;20441;-94
2022/11/30 04:50:24;;;;;;;5.22;3.92;;;;;;;16.61;37.27;102483.34;5037713;28;20076;-94
2022/11/30 04:52:49;;;;;;;4.68;3.85;;;;;;;16.60;37.46;102485.19;5015898;28;20074;-95
2022/11/30 04:55:18;;;;;;;4.28;3.40;;;;;;;16.59;37.33;102494.34;5041283;28;20044;-94
2022/11/30 04:57:47;;;;;;;4.72;3.90;;;;;;;16.59;37.60;102488.94;5012792;28;20087;-95
2022/11/30 05:00:16;;;;;;;4.72;3.70;;;;;;;16.61;37.24;102492.28;5016864;28;20029;-94
2022/11/30 05:02:42;;;;;;;5.32;4.03;;;;;;;16.61;37.46;102484.19;5019179;28;20111;-95
2022/11/30 05:05:08;;;;;;;4.55;3.55;;;;;;;16.63;37.35;102494.81;5038969;28;20479;-95
2022/11/30 05:07:34;;;;;;;4.65;3.22;;;;;;;16.59;37.19;102485.38;5007738;28;20504;-95
2022/11/30 05:10:00;;;;;;;5.18;3.85;;;;;;;16.60;37.35;102479.81;5017238;28;20036;-95
2022/11/30 05:12:25;;;;;;;5.32;3.80;;;;;;;16.59;37.37;102477.28;5003564;28;20025;-94
2022/11/30 05:14:51;;;;;;;5.90;3.90;;;;;;;16.61;37.36;102481.50;5020357;28;20034;-94
2022/11/30 05:17:19;;;;;;;3.85;3.30;;;;;;;16.61;37.29;102495.00;5015681;28;20071;-95
2022/11/30 05:19:45;;;;;;;4.22;3.47;;;;;;;16.59;37.46;102494.34;5013687;28;20079;-94
2022/11/30 05:22:11;;;;;;;4.78;3.80;;;;;;;16.60;37.38;102485.19;5010833;28;20037;-95
2022/11/30 05:24:36;;;;;;;5.57;4.13;;;;;;;16.58;37.52;102484.53;5008510;28;20104;-95
2022/11/30 05:27:02;;;;;;;5.95;3.92;;;;;;;16.64;37.36;102491.09;5031212;28;20105;-94
2022/11/30 05:29:28;;;;;;;4.75;3.70;;;;;;;16.64;37.45;102493.78;5021177;28;20083;-95
2022/11/30 05:31:53;;;;;;;5.15;3.78;;;;;;;16.60;37.30;102482.50;5035520;28;20040;-94
2022/11/30 05:34:19;;;;;;;5.55;3.70;;;;;;;16.59;37.17;102478.13;5015820;28;20052;-94
2022/11/30 05:36:45;;;;;;;5.13;3.83;;;;;;;16.63;37.38;102479.44;5035325;28;20112;-94
2022/11/30 05:39:10;;;;;;;5.22;3.80;;;;;;;16.58;37.37;102481.84;5021339;28;20155;-94
2022/11/30 05:41:36;;;;;;;4.38;3.70;;;;;;;16.62;37.05;102485.84;5033628;28;20033;-94
2022/11/30 05:44:02;;;;;;;4.28;3.45;;;;;;;16.60;37.42;102485.19;5002581;28;20028;-94
2022/11/30 05:46:28;;;;;;;4.43;3.72;;;;;;;16.60;37.40;102485.19;5001996;28;20033;-95
2022/11/30 05:48:53;;;;;;;4.95;3.55;;;;;;;16.59;37.43;102499.72;5044876;28;20036;-95
2022/11/30 05:51:20;;;;;;;4.50;3.42;;;;;;;16.61;37.22;102502.22;5030436;28;20029;-96
2022/11/30 05:53:45;;;;;;;4.50;3.85;;;;;;;16.59;37.46;102490.78;5010837;28;20024;-94
2022/11/30 05:56:19;;;;;;;4.88;3.67;;;;;;;16.58;37.33;102492.63;5038184;28;20388;-94
2022/11/30 05:58:44;;;;;;;4.40;3.63;;;;;;;16.60;37.46;102506.78;5018715;28;20041;-96
2022/11/30 06:01:21;;;;;;;4.35;3.22;;;;;;;16.58;37.48;102503.44;5027767;28;20072;-94
2022/11/30 06:03:47;;;;;;;4.45;3.45;;;;;;;16.57;37.41;102493.63;5038145;28;20060;-94
2022/11/30 06:06:13;;;;;;;3.95;3.50;;;;;;;16.60;37.48;102512.19;5020239;28;20072;-94
2022/11/30 06:08:38;;;;;;;6.35;3.78;;;;;;;16.58;37.39;102498.03;5031113;28;20318;-94
2022/11/30 06:11:04;;;;;;;4.70;3.70;;;;;;;16.60;37.40;102501.41;5021624;28;20036;-95
2022/11/30 06:13:33;;;;;;;4.63;3.50;;;;;;;16.60;37.38;102495.16;5040216;28;20032;-94
2022/11/30 06:15:59;;;;;;;4.97;3.80;;;;;;;16.58;37.40;102481.84;5046237;28;20391;-94
2022/11/30 06:18:25;;;;;;;4.70;3.55;;;;;;;16.57;37.45;102503.59;5019825;28;20033;-94
2022/11/30 06:20:51;;;;;;;4.97;3.83;;;;;;;16.58;37.47;102506.13;5016250;28;20395;-94
2022/11/30 06:23:16;;;;;;;4.72;3.85;;;;;;;16.56;37.35;102502.78;5025993;28;20496;-94
2022/11/30 06:25:45;;;;;;;4.90;3.67;;;;;;;16.55;37.38;102511.88;5035041;28;20463;-94
2022/11/30 06:28:12;;;;;;;4.82;3.75;;;;;;;16.55;37.47;102509.19;5023650;28;20033;-94
2022/11/30 06:30:37;;;;;;;4.70;3.58;;;;;;;16.57;37.48;102504.44;5035356;28;20084;-94
2022/11/30 06:33:03;;;;;;;5.18;3.60;;;;;;;16.57;37.55;102509.84;5007638;28;20428;-94
2022/11/30 06:35:29;;;;;;;5.72;3.50;;;;;;;16.57;37.54;102507.13;5033951;28;20485;-95
2022/11/30 06:37:56;;;;;;;4.53;3.50;;;;;;;16.59;37.36;102509.66;4997265;28;20037;-93
2022/11/30 06:40:21;;;;;;;3.70;3.25;;;;;;;16.57;37.54;102512.53;5034477;28;20041;-94
2022/11/30 06:42:47;;;;;;;4.45;3.65;;;;;;;16.57;37.49;102514.41;5016301;28;20034;-94
2022/11/30 06:45:13;;;;;;;5.35;3.60;;;;;;;16.59;37.59;102509.66;5024548;28;20586;-94
2022/11/30 06:47:38;;;;;;;3.47;3.03;;;;;;;16.58;37.39;102513.41;5009348;28;20091;-95
2022/11/30 06:50:05;;;;;;;4.88;3.65;;;;;;;16.58;37.38;102514.22;5016771;28;20034;-95
2022/11/30 06:52:30;;;;;;;4.43;3.42;;;;;;;16.59;37.44;102518.63;5025876;28;20127;-95
2022/11/30 06:54:56;;;;;;;4.00;3.35;;;;;;;16.55;37.40;102514.56;5026844;28;20492;-95
2022/11/30 06:57:26;;;;;;;5.38;3.78;;;;;;;16.54;37.36;102518.31;5014379;28;20076;-95
2022/11/30 06:59:55;;;;;;;4.85;3.63;;;;;;;16.57;37.30;102522.50;5010443;28;20159;-95
2022/11/30 07:02:21;;;;;;;4.20;3.53;;;;;;;16.55;37.51;102514.56;5008995;28;20484;-94
2022/11/30 07:04:52;;;;;;;3.85;3.20;;;;;;;16.56;37.37;102520.81;5039039;28;20028;-94
2022/11/30 07:07:18;;;;;;;4.85;3.45;;;;;;;16.54;37.47;102518.31;5034330;28;20063;-95
2022/11/30 07:09:43;;;;;;;4.55;3.50;;;;;;;16.55;37.35;102519.97;5029863;28;20096;-94
2022/11/30 07:12:09;;;;;;;4.80;3.42;;;;;;;16.54;37.32;102518.31;5028775;28;20439;-94
2022/11/30 07:14:35;;;;;;;4.80;3.60;;;;;;;16.53;37.34;102524.72;5023589;28;20571;-95
2022/11/30 07:17:03;;;;;;;3.90;3.10;;;;;;;16.54;37.54;102521.00;5026713;28;20157;-94
2022/11/30 07:19:30;;;;;;;4.60;3.72;;;;;;;16.56;37.57;102532.47;5018942;28;20036;-94
2022/11/30 07:21:55;;;;;;;4.20;3.50;;;;;;;16.56;37.37;102532.47;5015802;28;20113;-94
2022/11/30 07:27:08;;;;;;;4.20;3.40;;;;;;;16.55;37.56;102536.16;5026984;28;20052;-95
2022/11/30 07:29:34;;;;;;;3.72;3.30;;;;;;;16.57;37.12;102538.69;5010863;28;20030;-94
2022/11/30 07:32:00;;;;;;;4.00;3.38;;;;;;;16.58;37.42;102543.94;5003349;28;20099;-95
2022/11/30 07:34:28;;;;;;;4.70;3.33;;;;;;;16.51;37.53;102534.84;5028478;28;20052;-94
2022/11/30 07:36:54;;;;;;;4.50;3.60;;;;;;;16.57;37.33;102542.22;5013971;28;20034;-95
2022/11/30 07:39:19;;;;;;;4.55;3.53;;;;;;;16.53;37.54;102530.13;4980144;28;20033;-94
2022/11/30 07:41:45;;;;;;;3.78;3.08;;;;;;;16.53;37.42;102532.81;4988814;28;20144;-95
2022/11/30 07:44:11;;;;;;;4.70;3.53;;;;;;;16.53;37.40;102530.94;4982286;28;20025;-95
2022/11/30 07:46:37;;;;;;;3.95;3.45;;;;;;;16.56;37.54;102540.56;4972189;28;20040;-95
2022/11/30 07:49:03;;;;;;;4.28;3.65;;;;;;;16.53;37.25;102540.91;4964775;28;20025;-95
2022/11/30 07:51:29;;;;;;;4.40;3.28;;;;;;;16.53;37.34;102540.91;4994539;28;20485;-95
2022/11/30 07:53:55;;;;;;;4.57;3.55;;;;;;;16.53;37.41;102533.66;4989205;28;20032;-95
2022/11/30 07:56:21;;;;;;;4.15;3.10;;;;;;;16.55;37.43;102546.13;4988505;28;20509;-94
2022/11/30 07:58:47;;;;;;;3.83;3.00;;;;;;;16.55;37.55;102536.16;5013555;28;20065;-95
2022/11/30 08:01:15;;;;;;;3.78;3.20;;;;;;;16.53;37.41;102540.91;4979060;28;20097;-94
2022/11/30 08:03:40;;;;;;;3.40;3.10;;;;;;;16.52;37.38;102541.91;5000367;28;20507;-94
2022/11/30 08:06:08;;;;;;;3.72;3.15;;;;;;;16.53;37.62;102543.59;4965694;28;20029;-94
2022/11/30 08:08:35;;;;;;;4.43;2.95;;;;;;;16.55;37.40;102544.25;4990596;28;20312;-95
2022/11/30 08:11:01;;;;;;;4.60;3.63;;;;;;;16.54;37.52;102548.00;4982237;28;20495;-94
2022/11/30 08:13:27;;;;;;;5.07;3.50;;;;;;;16.53;37.52;102543.59;4985559;28;20333;-94
2022/11/30 08:15:53;;;;;;;3.75;3.25;;;;;;;16.55;37.32;102546.13;4984258;28;20473;-96
2022/11/30 08:18:19;;;;;;;3.65;3.15;;;;;;;16.52;37.56;102548.16;4982607;28;20038;-94
2022/11/30 08:20:47;;;;;;;4.00;3.58;;;;;;;16.54;37.69;102548.00;4999492;28;20492;-95
2022/11/30 08:23:13;;;;;;;4.18;3.40;;;;;;;16.52;37.64;102547.31;5000608;28;20087;-94
2022/11/30 08:25:38;;;;;;;3.63;3.05;;;;;;;16.54;37.42;102556.09;4994614;28;20034;-95
2022/11/30 08:28:04;;;;;;;4.40;3.47;;;;;;;16.52;37.37;102552.72;4981424;28;20029;-95
2022/11/30 08:30:29;;;;;;;4.22;3.40;;;;;;;16.55;37.52;102551.53;4988433;28;20025;-95
2022/11/30 08:32:56;;;;;;;3.78;3.17;;;;;;;16.55;37.53;102555.06;4998577;28;20022;-94
2022/11/30 08:35:21;;;;;;;4.45;3.28;;;;;;;16.55;37.31;102557.75;5005633;28;20253;-95
2022/11/30 08:37:47;;;;;;;3.95;3.10;;;;;;;16.52;37.43;102560.81;5028307;28;20029;-95
2022/11/30 08:40:13;;;;;;;3.40;3.10;;;;;;;16.51;37.53;102554.56;5027982;28;20029;-94
2022/11/30 08:42:39;;;;;;;4.18;3.00;;;;;;;16.52;37.54;102563.50;5034346;28;20025;-95
2022/11/30 08:45:05;;;;;;;4.18;3.28;;;;;;;16.49;37.54;102564.72;5025232;28;20407;-95
2022/11/30 08:47:30;;;;;;;3.67;3.03;;;;;;;16.51;37.56;102556.44;5015333;28;20032;-95
2022/11/30 08:50:00;;;;;;;4.00;3.40;;;;;;;16.49;37.46;102548.50;5033427;28;20031;-94
2022/11/30 08:52:26;;;;;;;3.85;3.20;;;;;;;16.48;37.43;102546.00;5003670;28;20029;-95
2022/11/30 08:54:51;;;;;;;4.10;3.50;;;;;;;16.51;37.64;102545.66;5015366;28;20033;-94
2022/11/30 08:57:18;;;;;;;4.25;3.30;;;;;;;16.53;37.44;102559.81;5037461;28;20031;-93
2022/11/30 08:59:44;;;;;;;4.90;3.25;;;;;;;16.53;37.44;102549.00;5021930;28;20520;-94
2022/11/30 09:02:11;;;;;;;3.67;3.05;;;;;;;16.55;37.42;102546.13;5021238;28;20090;-95
2022/11/30 09:04:39;;;;;;;5.25;3.28;;;;;;;16.51;37.83;102548.34;5003176;28;20044;-94
2022/11/30 09:07:05;;;;;;;4.05;3.10;;;;;;;16.52;37.63;102544.59;5011497;28;20067;-95
2022/11/30 09:09:31;;;;;;;3.92;3.35;;;;;;;16.51;37.64;102543.78;5016360;28;20106;-94
2022/11/30 09:11:57;;;;;;;4.65;3.28;;;;;;;16.51;37.68;102548.34;5004394;28;20060;-95
2022/11/30 09:14:22;;;;;;;3.45;3.10;;;;;;;16.50;37.66;102541.25;5015763;28;20029;-94
2022/11/30 09:16:51;;;;;;;4.07;3.33;;;;;;;16.49;37.44;102536.88;5035517;28;20033;-94
2022/11/30 09:19:17;;;;;;;3.60;3.10;;;;;;;16.47;37.67;102536.19;5035729;28;20047;-94
2022/11/30 09:21:42;;;;;;;3.70;3.05;;;;;;;16.49;37.36;102539.59;5013722;28;20404;-94
2022/11/30 09:24:08;;;;;;;3.42;3.10;;;;;;;16.51;37.49;102537.53;5038206;28;20087;-95
2022/11/30 09:26:33;;;;;;;4.65;3.45;;;;;;;16.49;37.57;102537.72;5013529;28;20075;-94
2022/11/30 09:28:59;;;;;;;4.05;3.20;;;;;;;16.49;37.64;102537.72;4997282;28;20029;-96
2022/11/30 09:31:25;;;;;;;4.32;3.58;;;;;;;16.49;37.51;102537.72;5024408;28;20025;-94
2022/11/30 09:33:51;;;;;;;4.05;3.25;;;;;;;16.48;37.63;102536.03;5022416;28;20076;-94
2022/11/30 09:36:18;;;;;;;4.20;3.22;;;;;;;16.49;37.62;102534.19;5036101;28;20041;-95
2022/11/30 09:38:44;;;;;;;3.80;3.22;;;;;;;16.47;37.51;102533.50;5034450;28;20063;-95
2022/11/30 09:41:40;;;;;;;3.63;3.00;;;;;;;16.52;37.61;102539.22;5023142;28;20112;-96
2022/11/30 09:44:23;;;;;;;3.60;3.15;;;;;;;16.50;37.54;102538.56;5038044;28;20025;-94
2022/11/30 09:47:17;;;;;;;4.20;3.35;;;;;;;16.50;37.59;102535.84;5016633;28;20022;-93
2022/11/30 09:49:46;;;;;;;4.68;3.30;;;;;;;16.47;37.78;102533.50;5026760;28;20029;-95
2022/11/30 09:52:56;;;;;;;4.07;3.15;;;;;;;16.47;37.62;102528.09;5007625;28;20036;-94
2022/11/30 09:55:27;;;;;;;4.35;2.78;;;;;;;16.43;37.75;102518.69;5007292;28;20416;-94
2022/11/30 09:57:57;;;;;;;4.25;3.00;;;;;;;16.49;37.41;102543.13;5005980;28;20029;-95
2022/11/30 10:00:23;;;;;;;3.70;3.13;;;;;;;16.45;37.76;102528.31;5023965;28;20037;-95
2022/11/30 10:02:53;;;;;;;3.95;3.15;;;;;;;16.47;37.37;102531.66;5020340;28;20380;-94
2022/11/30 10:05:25;;;;;;;3.38;3.05;;;;;;;16.48;37.75;102535.19;5025903;28;20057;-95
2022/11/30 10:07:59;;;;;;;3.78;2.92;;;;;;;16.50;37.66;102530.44;5000719;28;20108;-95
2022/11/30 10:10:25;;;;;;;;;;;;;;;16.49;37.73;102536.88;5035399;28;20066;-95
2022/11/30 10:12:56;;;;;;;5.20;3.22;;;;;;;16.49;37.77;102537.72;5037831;28;20283;-94
2022/11/30 10:15:24;;;;;;;3.33;3.00;;;;;;;16.49;37.68;102536.88;5037011;28;20029;-95
2022/11/30 10:18:04;;;;;;;3.88;3.20;;;;;;;16.49;37.72;102539.59;5017133;28;20029;-94
2022/11/30 10:20:54;;;;;;;4.05;2.75;;;;;;;16.49;37.76;102531.50;5018585;28;20017;-95
2022/11/30 10:23:38;;;;;;;3.75;3.15;;;;;;;16.50;37.72;102535.84;5027743;28;20033;-95
2022/11/30 10:26:07;;;;;;;4.25;3.17;;;;;;;16.49;37.66;102542.28;5034690;28;20400;-94
2022/11/30 10:28:50;;;;;;;4.03;3.45;;;;;;;16.48;37.63;102532.50;5019159;28;20030;-94
2022/11/30 10:31:16;;;;;;;4.45;3.45;;;;;;;16.43;37.81;102529.47;5003473;28;20018;-94
2022/11/30 10:33:45;;;;;;;4.72;3.40;;;;;;;16.49;37.82;102542.28;5013214;28;20086;-95
2022/11/30 10:36:14;;;;;;;3.28;2.60;;;;;;;16.45;37.79;102519.34;5012291;28;20508;-95
2022/11/30 10:38:45;;;;;;;3.40;2.92;;;;;;;16.46;37.69;102531.84;5019740;28;20525;-94
2022/11/30 10:41:15;;;;;;;3.90;3.10;;;;;;;16.46;37.77;102537.22;5008359;28;20025;-95
2022/11/30 10:43:44;;;;;;;3.45;3.08;;;;;;;16.45;37.67;102543.63;5026411;28;20088;-95
2022/11/30 10:46:21;;;;;;;3.67;2.97;;;;;;;16.47;37.93;102547.84;5037218;28;20108;-94
2022/11/30 10:49:08;;;;;;;3.97;3.20;;;;;;;16.46;37.93;102537.22;5033650;28;20032;-94
2022/11/30 10:51:36;;;;;;;4.18;3.15;;;;;;;16.47;37.69;102538.91;5004263;28;20107;-95
2022/11/30 10:54:02;;;;;;;3.70;3.00;;;;;;;16.45;37.72;102530.13;5018765;28;20027;-95
2022/11/30 10:56:28;;;;;;;4.45;3.40;;;;;;;16.46;37.77;102534.53;5025378;28;20028;-95
2022/11/30 10:59:03;;;;;;;3.70;3.03;;;;;;;16.48;37.67;102536.03;5037638;28;20037;-95
2022/11/30 11:01:33;;;;;;;3.67;3.10;;;;;;;16.49;37.83;102536.88;5019802;28;20101;-95
2022/11/30 11:04:21;;;;;;;4.53;3.25;;;;;;;16.48;37.70;102540.59;5034651;28;21187;-95
2022/11/30 11:06:54;;;;;;;4.40;3.40;;;;;;;16.47;37.83;102537.06;5035733;28;20032;-95
2022/11/30 11:09:29;;;;;;;3.45;2.65;;;;;;;16.46;37.77;102534.53;5043254;28;20588;-94
2022/11/30 11:12:00;;;;;;;3.88;3.28;;;;;;;16.44;37.98;102539.28;5019883;28;20044;-95
2022/11/30 11:14:26;;;;;;;3.60;2.97;;;;;;;16.45;37.86;102546.31;5024787;28;20021;-95
2022/11/30 11:17:17;;;;;;;4.30;3.10;;;;;;;16.49;37.97;102542.28;5019891;28;20485;-95
2022/11/30 11:19:43;;;;;;;3.92;3.10;;;;;;;16.42;37.78;102536.75;5035346;28;20123;-95
2022/11/30 11:22:12;;;;;;;4.20;3.45;;;;;;;16.48;37.87;102538.72;4999449;28;20471;-94
2022/11/30 11:24:37;;;;;;;3.63;3.00;;;;;;;16.45;37.90;102547.19;5033469;28;20033;-96
2022/11/30 11:27:03;;;;;;;4.53;3.03;;;;;;;16.45;38.01;102543.63;5017074;28;20031;-95
2022/11/30 11:29:32;;;;;;;3.75;3.05;;;;;;;16.46;37.96;102539.94;5037524;28;20029;-95
2022/11/30 11:32:06;;;;;;;3.92;2.85;;;;;;;16.47;37.93;102544.28;5028538;28;20244;-94